Time;durP1;ratioP1;P1;durP2;ratioP2;P2;SDS_P1;SDS_P2;PMS_P1;PMS_P2;Temp;Humidity;BMP_temperature;BMP_pressure;BME280_temperature;BME280_humidity;BME280_pressure;Samples;Min_cycle;Max_cycle;Signal;HPM_P1;HPM_P2
2024/01/04 00:01:14;;;;;;;10.60;2.92;;;6.70;99.90;;;;;;4920356;29;20083;-87
2024/01/04 00:03:40;;;;;;;12.50;3.10;;;6.70;99.90;;;;;;4938474;29;20079;-86
2024/01/04 00:06:06;;;;;;;12.35;4.63;;;6.60;99.90;;;;;;4920936;29;20478;-86
2024/01/04 00:08:32;;;;;;;16.95;6.35;;;6.60;99.90;;;;;;4920516;29;20063;-86
2024/01/04 00:11:00;;;;;;;7.77;2.63;;;7.20;99.90;;;;;;4936733;29;20091;-86
2024/01/04 00:13:26;;;;;;;7.85;3.00;;;7.70;99.90;;;;;;4920666;29;20500;-86
2024/01/04 00:15:51;;;;;;;8.95;2.60;;;6.60;99.90;;;;;;4947778;29;20090;-87
2024/01/04 00:18:17;;;;;;;7.30;2.03;;;7.20;99.90;;;;;;4957079;29;20135;-87
2024/01/04 00:20:43;;;;;;;7.17;2.17;;;6.50;99.90;;;;;;4939606;29;20051;-87
2024/01/04 00:23:08;;;;;;;8.93;3.03;;;6.50;99.90;;;;;;4950656;29;20051;-87
2024/01/04 00:25:34;;;;;;;8.00;2.47;;;6.50;99.90;;;;;;4920736;29;20054;-87
2024/01/04 00:28:00;;;;;;;8.47;2.20;;;6.50;99.90;;;;;;4920098;29;20044;-86
2024/01/04 00:30:28;;;;;;;10.67;3.00;;;6.50;99.90;;;;;;4920762;29;20044;-86
2024/01/04 00:32:54;;;;;;;7.70;2.00;;;6.50;99.90;;;;;;4932593;29;20206;-86
2024/01/04 00:35:20;;;;;;;6.87;1.80;;;6.40;99.90;;;;;;4939207;29;20130;-87
2024/01/04 00:37:46;;;;;;;8.57;2.53;;;6.50;99.90;;;;;;4939504;29;20123;-87
2024/01/04 00:40:12;;;;;;;7.00;1.90;;;6.40;99.90;;;;;;4939166;29;20506;-88
2024/01/04 00:42:38;;;;;;;8.50;2.20;;;6.40;99.90;;;;;;4939372;29;20082;-87
2024/01/04 00:45:04;;;;;;;8.97;2.00;;;6.30;99.90;;;;;;4939222;29;20043;-87
2024/01/04 00:47:29;;;;;;;8.00;1.90;;;6.30;99.90;;;;;;4939672;29;20064;-87
2024/01/04 00:49:55;;;;;;;6.93;1.90;;;7.60;99.90;;;;;;4938821;29;20357;-86
2024/01/04 00:52:24;;;;;;;5.33;1.80;;;6.30;99.90;;;;;;4939527;29;20054;-87
2024/01/04 00:54:55;;;;;;;6.90;1.77;;;6.30;99.90;;;;;;4939329;29;20077;-87
2024/01/04 00:57:24;;;;;;;6.20;1.63;;;6.00;99.90;;;;;;4938815;29;20055;-86
2024/01/04 00:59:56;;;;;;;9.30;1.80;;;6.60;99.90;;;;;;4939202;29;20046;-87
2024/01/04 01:02:25;;;;;;;6.03;1.50;;;7.60;99.90;;;;;;4938735;29;20047;-87
2024/01/04 01:04:56;;;;;;;6.83;1.80;;;6.10;99.90;;;;;;4926536;29;20147;-87
2024/01/04 01:07:28;;;;;;;10.13;3.60;;;6.30;99.90;;;;;;4919980;29;20040;-86
2024/01/04 01:10:03;;;;;;;7.40;2.17;;;7.80;99.90;;;;;;4917936;29;20865;-87
2024/01/04 01:12:33;;;;;;;9.23;2.00;;;5.20;99.90;;;;;;4919987;29;20055;-88
2024/01/04 01:15:04;;;;;;;7.00;1.90;;;6.00;99.90;;;;;;4919502;29;20507;-87
2024/01/04 01:17:33;;;;;;;7.27;2.10;;;6.10;99.90;;;;;;4919298;29;20106;-87
2024/01/04 01:20:02;;;;;;;11.00;2.80;;;7.60;99.90;;;;;;4919820;29;20439;-87
2024/01/04 01:22:37;;;;;;;13.13;5.90;;;6.10;99.90;;;;;;4920002;29;20039;-87
2024/01/04 01:25:06;;;;;;;10.00;3.30;;;5.90;99.90;;;;;;4919121;29;20078;-87
2024/01/04 01:27:34;;;;;;;5.97;1.60;;;6.00;99.90;;;;;;4920003;29;20084;-87
2024/01/04 01:30:00;;;;;;;9.27;1.90;;;7.10;99.90;;;;;;4919641;29;20051;-86
2024/01/04 01:32:26;;;;;;;4.77;1.63;;;6.60;99.90;;;;;;4922161;29;20402;-87
2024/01/04 01:35:03;;;;;;;6.00;1.73;;;5.90;99.90;;;;;;4937876;29;20103;-87
2024/01/04 01:37:34;;;;;;;7.47;2.03;;;5.40;99.90;;;;;;4938360;29;20054;-87
2024/01/04 01:40:00;;;;;;;4.87;1.50;;;6.40;99.90;;;;;;4937539;29;20384;-87
2024/01/04 01:42:38;;;;;;;9.93;1.90;;;5.80;99.90;;;;;;4938671;29;20399;-86
2024/01/04 01:45:16;;;;;;;7.17;1.93;;;5.90;99.90;;;;;;4937243;29;20797;-86
2024/01/04 01:47:48;;;;;;;6.77;1.60;;;5.50;99.90;;;;;;4938486;29;20528;-87
2024/01/04 01:50:19;;;;;;;5.60;1.50;;;5.40;99.90;;;;;;4937830;29;20122;-87
2024/01/04 01:52:52;;;;;;;5.10;1.50;;;6.00;99.90;;;;;;4937919;29;20451;-87
2024/01/04 01:55:24;;;;;;;7.38;1.75;;;5.40;99.90;;;;;;4938623;29;20129;-87
2024/01/04 01:57:54;;;;;;;9.97;2.17;;;5.50;99.90;;;;;;4938047;29;20047;-88
2024/01/04 02:00:20;;;;;;;9.77;2.27;;;5.30;99.90;;;;;;4937738;29;20060;-87
2024/01/04 02:02:50;;;;;;;6.67;2.00;;;6.80;99.90;;;;;;4938396;29;20429;-87
2024/01/04 02:05:16;;;;;;;8.97;1.90;;;6.00;99.90;;;;;;4937748;29;20043;-86
2024/01/04 02:07:43;;;;;;;6.63;1.80;;;5.50;99.90;;;;;;4937964;29;20070;-87
2024/01/04 02:10:09;;;;;;;10.40;2.20;;;5.50;99.90;;;;;;4937859;29;20048;-87
2024/01/04 02:12:35;;;;;;;6.90;2.13;;;5.40;99.90;;;;;;4937992;29;20057;-87
2024/01/04 02:15:00;;;;;;;7.10;1.93;;;5.40;99.90;;;;;;4937181;29;20047;-87
2024/01/04 02:17:28;;;;;;;6.80;1.83;;;5.40;99.90;;;;;;4937873;29;20138;-87
2024/01/04 02:19:56;;;;;;;9.83;2.20;;;5.40;99.90;;;;;;4936861;29;20047;-87
2024/01/04 02:22:21;;;;;;;7.13;1.90;;;5.40;99.90;;;;;;4937291;29;20067;-87
2024/01/04 02:24:47;;;;;;;8.10;2.07;;;5.40;99.90;;;;;;4937504;29;20098;-86
2024/01/04 02:27:13;;;;;;;7.47;2.20;;;6.00;99.90;;;;;;4937375;29;20494;-87
2024/01/04 02:29:39;;;;;;;9.57;2.03;;;5.30;99.90;;;;;;4938387;29;20110;-87
2024/01/04 02:32:05;;;;;;;10.77;2.30;;;5.30;99.90;;;;;;4933853;29;20090;-86
2024/01/04 02:34:31;;;;;;;9.10;2.07;;;5.40;99.90;;;;;;4918091;29;20051;-87
2024/01/04 02:36:59;;;;;;;9.10;2.20;;;5.30;99.90;;;;;;4918222;29;20467;-86
2024/01/04 02:39:25;;;;;;;9.10;2.23;;;5.30;99.90;;;;;;4918459;29;20079;-87
2024/01/04 02:41:51;;;;;;;7.47;1.90;;;5.30;99.90;;;;;;4918291;29;20055;-87
2024/01/04 02:44:17;;;;;;;8.33;2.07;;;5.50;99.90;;;;;;4918707;29;20047;-87
2024/01/04 02:46:43;;;;;;;11.30;3.03;;;6.40;99.90;;;;;;4918806;29;20059;-87
2024/01/04 02:49:08;;;;;;;9.23;2.10;;;5.30;99.90;;;;;;4917826;29;20043;-87
2024/01/04 02:51:34;;;;;;;9.73;2.10;;;5.30;99.90;;;;;;4918568;29;20070;-87
2024/01/04 02:54:00;;;;;;;8.37;2.03;;;5.30;99.90;;;;;;4918208;29;20055;-87
2024/01/04 02:56:32;;;;;;;7.13;1.93;;;5.30;99.90;;;;;;4917945;29;20098;-87
2024/01/04 02:59:09;;;;;;;7.90;1.73;;;5.10;99.90;;;;;;4918310;29;20051;-88
2024/01/04 03:01:38;;;;;;;8.77;2.27;;;5.70;99.90;;;;;;4952158;28;20079;-87
2024/01/04 03:04:10;;;;;;;6.80;1.80;;;6.20;99.90;;;;;;4936330;29;20141;-87
2024/01/04 03:06:39;;;;;;;6.60;1.80;;;5.10;99.90;;;;;;4937109;29;20039;-87
2024/01/04 03:09:11;;;;;;;8.97;1.87;;;6.50;99.90;;;;;;4936960;29;20138;-87
2024/01/04 03:11:42;;;;;;;8.60;1.80;;;5.30;99.90;;;;;;4937295;29;20039;-87
2024/01/04 03:14:11;;;;;;;5.67;1.50;;;5.70;99.90;;;;;;4936659;29;20051;-87
2024/01/04 03:16:42;;;;;;;7.03;2.00;;;5.80;99.90;;;;;;4918447;29;20044;-87
2024/01/04 03:19:13;;;;;;;7.50;1.60;;;4.30;99.90;;;;;;4918046;29;20496;-87
2024/01/04 03:21:42;;;;;;;7.87;1.90;;;4.70;99.90;;;;;;4917983;29;20065;-87
2024/01/04 03:24:14;;;;;;;6.90;1.80;;;4.70;99.90;;;;;;4917518;29;20117;-87
2024/01/04 03:26:46;;;;;;;7.17;1.70;;;5.70;99.90;;;;;;4918451;29;20056;-87
2024/01/04 03:29:14;;;;;;;7.87;1.60;;;5.20;99.90;;;;;;4917798;29;20131;-86
2024/01/04 03:31:46;;;;;;;4.97;1.70;;;4.70;99.90;;;;;;4953317;28;20495;-87
2024/01/04 03:34:21;;;;;;;6.50;1.50;;;5.30;99.90;;;;;;4939632;29;20365;-87
2024/01/04 03:36:52;;;;;;;9.37;2.37;;;4.80;99.90;;;;;;4940717;29;20059;-87
2024/01/04 03:39:27;;;;;;;8.57;2.00;;;4.80;99.90;;;;;;4940163;29;20050;-87
2024/01/04 03:41:59;;;;;;;9.33;1.90;;;6.40;99.90;;;;;;4940775;29;20381;-87
2024/01/04 03:44:24;;;;;;;10.13;2.07;;;5.00;99.90;;;;;;4939854;29;20055;-87
2024/01/04 03:46:50;;;;;;;10.07;2.00;;;5.00;99.90;;;;;;4940878;29;20039;-87
2024/01/04 03:49:28;;;;;;;8.60;2.10;;;5.00;99.90;;;;;;4940444;29;20391;-88
2024/01/04 03:51:54;;;;;;;10.60;2.23;;;4.60;99.90;;;;;;4939933;29;20603;-88
2024/01/04 03:54:25;;;;;;;7.23;2.07;;;5.00;99.90;;;;;;4940455;29;20115;-87
2024/01/04 03:56:57;;;;;;;7.93;2.00;;;4.60;99.90;;;;;;4940190;29;20047;-87
2024/01/04 03:59:29;;;;;;;7.13;1.73;;;6.30;99.90;;;;;;4940165;29;20070;-87
2024/01/04 04:01:58;;;;;;;10.87;2.40;;;4.80;99.90;;;;;;4939997;29;20066;-87
2024/01/04 04:04:26;;;;;;;8.10;2.13;;;4.40;99.90;;;;;;4940020;29;20396;-88
2024/01/04 04:06:52;;;;;;;11.27;2.50;;;5.60;99.90;;;;;;4939025;29;20126;-87
2024/01/04 04:09:29;;;;;;;10.87;1.90;;;5.70;99.90;;;;;;4940268;29;20066;-87
2024/01/04 04:12:01;;;;;;;8.37;1.80;;;4.80;99.90;;;;;;4939635;29;20035;-87
2024/01/04 04:14:34;;;;;;;7.97;1.90;;;4.70;99.90;;;;;;4937846;29;20043;-87
2024/01/04 04:17:08;;;;;;;7.47;1.70;;;4.70;99.90;;;;;;4936858;29;20147;-87
2024/01/04 04:19:33;;;;;;;8.53;1.70;;;4.60;99.90;;;;;;4936188;29;20413;-87
2024/01/04 04:21:59;;;;;;;9.27;1.80;;;4.90;99.90;;;;;;4920669;29;20075;-87
2024/01/04 04:24:25;;;;;;;6.07;1.57;;;4.90;99.90;;;;;;4920185;29;20060;-87
2024/01/04 04:26:50;;;;;;;7.97;1.77;;;4.90;99.90;;;;;;4937299;29;20047;-87
2024/01/04 04:29:16;;;;;;;4.47;1.60;;;6.30;99.90;;;;;;4920742;29;20404;-87
2024/01/04 04:31:41;;;;;;;8.50;1.60;;;4.90;99.90;;;;;;4920646;29;20051;-87
2024/01/04 04:34:07;;;;;;;6.70;1.53;;;4.90;99.90;;;;;;4920251;29;20187;-87
2024/01/04 04:36:33;;;;;;;7.07;1.60;;;4.90;99.90;;;;;;4920832;29;20039;-87
2024/01/04 04:39:02;;;;;;;5.90;1.73;;;4.90;99.90;;;;;;4920132;29;20047;-87
2024/01/04 04:41:34;;;;;;;5.60;1.40;;;4.80;99.90;;;;;;4920446;29;20051;-88
2024/01/04 04:44:06;;;;;;;4.27;1.20;;;5.00;99.90;;;;;;4920638;29;20369;-87
2024/01/04 04:46:32;;;;;;;3.17;1.30;;;4.60;99.90;;;;;;4920503;29;20479;-87
2024/01/04 04:48:58;;;;;;;6.00;1.40;;;5.80;99.90;;;;;;4919961;29;20335;-87
2024/01/04 04:51:25;;;;;;;6.20;1.10;;;4.80;99.90;;;;;;4936344;29;20047;-88
2024/01/04 04:53:51;;;;;;;4.63;1.23;;;4.80;99.90;;;;;;4920401;29;20060;-87
2024/01/04 04:56:17;;;;;;;8.37;1.40;;;4.80;99.90;;;;;;4920079;29;20122;-87
2024/01/04 04:58:43;;;;;;;5.67;1.50;;;4.80;99.90;;;;;;4920408;29;20384;-87
2024/01/04 05:01:09;;;;;;;5.50;1.20;;;4.70;99.90;;;;;;4924638;28;20111;-86
2024/01/04 05:03:38;;;;;;;5.70;1.60;;;4.70;99.90;;;;;;4958063;28;20394;-87
2024/01/04 05:06:06;;;;;;;7.70;1.30;;;6.10;99.90;;;;;;4957673;28;20097;-87
2024/01/04 05:08:32;;;;;;;6.87;1.50;;;4.70;99.90;;;;;;4958045;28;20085;-87
2024/01/04 05:10:58;;;;;;;6.17;2.07;;;4.70;99.90;;;;;;4957490;28;20082;-87
2024/01/04 05:13:23;;;;;;;3.97;1.27;;;4.70;99.90;;;;;;4958024;28;20101;-87
2024/01/04 05:15:49;;;;;;;3.87;1.20;;;6.00;99.90;;;;;;4957834;28;20406;-88
2024/01/04 05:18:14;;;;;;;4.10;1.10;;;4.60;99.90;;;;;;4957882;28;20113;-87
2024/01/04 05:20:40;;;;;;;6.63;1.33;;;4.60;99.90;;;;;;4957295;28;20093;-88
2024/01/04 05:23:07;;;;;;;6.00;1.10;;;4.50;99.90;;;;;;4957738;28;20776;-88
2024/01/04 05:25:35;;;;;;;4.80;1.20;;;4.50;99.90;;;;;;4958410;28;20081;-87
2024/01/04 05:28:01;;;;;;;6.80;1.60;;;4.60;99.90;;;;;;4957875;28;20050;-87
2024/01/04 05:30:26;;;;;;;4.63;1.23;;;4.50;99.90;;;;;;4957764;28;20051;-87
2024/01/04 05:32:52;;;;;;;8.30;1.80;;;4.50;99.90;;;;;;4957639;28;20057;-86
2024/01/04 05:35:18;;;;;;;5.47;1.40;;;4.50;99.90;;;;;;4958031;28;20059;-87
2024/01/04 05:37:43;;;;;;;6.57;1.40;;;5.60;99.90;;;;;;4957637;28;20043;-88
2024/01/04 05:40:09;;;;;;;7.30;1.60;;;4.50;99.90;;;;;;4957700;28;20391;-87
2024/01/04 05:42:35;;;;;;;6.60;1.30;;;4.50;99.90;;;;;;4957589;28;20410;-87
2024/01/04 05:45:02;;;;;;;6.20;1.30;;;4.50;99.90;;;;;;4956897;28;20113;-88
2024/01/04 05:47:27;;;;;;;5.80;1.30;;;4.50;99.90;;;;;;4957833;28;20078;-88
2024/01/04 05:49:53;;;;;;;8.50;1.60;;;4.70;99.90;;;;;;4956906;28;20129;-86
2024/01/04 05:52:18;;;;;;;7.20;1.60;;;5.80;99.90;;;;;;4956757;28;20046;-88
2024/01/04 05:54:44;;;;;;;7.33;1.50;;;4.50;99.90;;;;;;4957810;28;20109;-87
2024/01/04 05:57:10;;;;;;;4.80;1.30;;;4.30;99.90;;;;;;4956470;28;20056;-87
2024/01/04 05:59:35;;;;;;;4.40;1.30;;;5.40;99.90;;;;;;4957196;28;20379;-87
2024/01/04 06:02:01;;;;;;;5.73;1.50;;;4.30;99.90;;;;;;4956778;28;20094;-87
2024/01/04 06:04:32;;;;;;;9.43;1.67;;;4.40;99.90;;;;;;4957289;28;20039;-87
2024/01/04 06:07:04;;;;;;;4.53;1.30;;;4.30;99.90;;;;;;4956647;28;20137;-87
2024/01/04 06:09:33;;;;;;;9.57;1.60;;;4.10;99.90;;;;;;4956993;28;20043;-87
2024/01/04 06:12:05;;;;;;;7.57;1.53;;;4.90;99.90;;;;;;4957220;28;20058;-87
2024/01/04 06:14:32;;;;;;;7.88;1.52;;;4.30;99.90;;;;;;4957518;28;20082;-88
2024/01/04 06:16:58;;;;;;;6.00;1.40;;;4.30;99.90;;;;;;4956291;28;20055;-88
2024/01/04 06:19:29;;;;;;;5.07;1.30;;;4.30;99.90;;;;;;4956720;28;20094;-87
2024/01/04 06:21:55;;;;;;;4.50;1.40;;;4.30;99.90;;;;;;4957067;28;20046;-87
2024/01/04 06:24:20;;;;;;;7.03;1.40;;;4.30;99.90;;;;;;4956778;28;20101;-88
2024/01/04 06:26:46;;;;;;;5.57;1.40;;;4.30;99.90;;;;;;4956349;28;20075;-87
2024/01/04 06:29:11;;;;;;;5.10;1.33;;;4.30;99.90;;;;;;4956569;28;20055;-87
2024/01/04 06:31:37;;;;;;;5.37;1.50;;;4.30;99.90;;;;;;4956761;28;20399;-87
2024/01/04 06:34:03;;;;;;;5.27;1.20;;;5.20;99.90;;;;;;4956203;28;20046;-87
2024/01/04 06:36:28;;;;;;;5.57;1.37;;;4.30;99.90;;;;;;4956530;28;20038;-87
2024/01/04 06:38:54;;;;;;;7.37;1.50;;;4.30;99.90;;;;;;4956498;28;20065;-88
2024/01/04 06:41:20;;;;;;;4.33;1.30;;;4.30;99.90;;;;;;4956187;28;20398;-87
2024/01/04 06:43:46;;;;;;;4.33;1.30;;;4.30;99.90;;;;;;4956575;28;20047;-87
2024/01/04 06:46:14;;;;;;;6.07;1.30;;;4.20;99.90;;;;;;4956205;28;20403;-87
2024/01/04 06:48:40;;;;;;;6.83;1.43;;;4.20;99.90;;;;;;4956384;28;20051;-87
2024/01/04 06:51:05;;;;;;;6.07;1.30;;;4.20;99.90;;;;;;4956244;28;20049;-87
2024/01/04 06:53:31;;;;;;;3.67;1.53;;;4.20;99.90;;;;;;4956644;28;20057;-87
2024/01/04 06:55:56;;;;;;;5.27;1.40;;;4.20;99.90;;;;;;4944307;28;20035;-87
2024/01/04 06:58:22;;;;;;;7.57;1.90;;;4.20;99.90;;;;;;4918407;29;20036;-87
2024/01/04 07:00:48;;;;;;;5.30;1.43;;;4.20;99.90;;;;;;4927999;29;20063;-87
2024/01/04 07:03:14;;;;;;;7.07;1.27;;;4.10;99.90;;;;;;4932094;29;20065;-87
2024/01/04 07:05:39;;;;;;;3.67;1.20;;;5.60;99.90;;;;;;4918046;29;20134;-87
2024/01/04 07:08:05;;;;;;;4.80;1.20;;;4.10;99.90;;;;;;4919484;29;20044;-87
2024/01/04 07:10:31;;;;;;;3.80;1.20;;;4.10;99.90;;;;;;4955355;28;20042;-88
2024/01/04 07:12:56;;;;;;;5.40;1.40;;;4.10;99.90;;;;;;4959697;28;20047;-87
2024/01/04 07:15:22;;;;;;;4.03;1.30;;;4.00;99.90;;;;;;4959742;28;20045;-88
2024/01/04 07:17:48;;;;;;;6.90;1.40;;;4.10;99.90;;;;;;4960259;28;20126;-87
2024/01/04 07:20:13;;;;;;;6.27;1.40;;;4.10;99.90;;;;;;4959591;28;20042;-87
2024/01/04 07:22:39;;;;;;;3.87;1.10;;;5.10;99.90;;;;;;4959595;28;20165;-88
2024/01/04 07:25:05;;;;;;;3.97;1.50;;;4.00;99.90;;;;;;4959862;28;20054;-87
2024/01/04 07:27:31;;;;;;;5.63;1.13;;;4.00;99.90;;;;;;4960215;28;20058;-87
2024/01/04 07:29:57;;;;;;;3.90;1.10;;;4.00;99.90;;;;;;4959269;28;20036;-87
2024/01/04 07:32:23;;;;;;;4.83;1.30;;;4.00;99.90;;;;;;4959966;28;20057;-87
2024/01/04 07:34:49;;;;;;;4.57;1.17;;;4.00;99.90;;;;;;4960132;28;20473;-85
2024/01/04 07:37:15;;;;;;;3.47;0.83;;;4.00;99.90;;;;;;4951103;29;20567;-86
2024/01/04 07:39:41;;;;;;;4.87;1.40;;;4.00;99.90;;;;;;4941093;29;20126;-86
2024/01/04 07:42:08;;;;;;;4.03;1.20;;;4.00;99.90;;;;;;4940441;29;20047;-86
2024/01/04 07:44:34;;;;;;;9.37;1.97;;;4.00;99.90;;;;;;4939994;29;20047;-87
2024/01/04 07:46:59;;;;;;;4.07;1.37;;;4.10;99.90;;;;;;4940517;29;20102;-85
2024/01/04 07:49:25;;;;;;;6.43;1.30;;;4.00;99.90;;;;;;4940409;29;20551;-86
2024/01/04 07:51:52;;;;;;;11.13;1.83;;;4.20;99.90;;;;;;4940050;29;20048;-85
2024/01/04 07:54:18;;;;;;;6.00;1.67;;;4.00;99.90;;;;;;4940775;29;20391;-86
2024/01/04 07:56:44;;;;;;;3.57;1.17;;;4.00;99.90;;;;;;4940201;29;20058;-86
2024/01/04 07:59:09;;;;;;;5.03;1.40;;;4.00;99.90;;;;;;4939401;29;20051;-86
2024/01/04 08:01:38;;;;;;;7.17;1.63;;;4.00;99.90;;;;;;4939566;29;20152;-88
2024/01/04 08:04:19;;;;;;;6.80;1.60;;;3.90;99.90;;;;;;4939910;29;20066;-87
2024/01/04 08:06:57;;;;;;;9.17;2.60;;;4.00;99.90;;;;;;4940121;29;20074;-87
2024/01/04 08:09:22;;;;;;;9.00;1.57;;;4.00;99.90;;;;;;4940387;29;20051;-87
2024/01/04 08:11:56;;;;;;;7.97;1.70;;;5.00;99.90;;;;;;4939801;29;20457;-87
2024/01/04 08:14:24;;;;;;;7.05;2.03;;;3.90;99.90;;;;;;4957623;29;20058;-87
2024/01/04 08:16:49;;;;;;;6.57;1.57;;;5.10;99.90;;;;;;4939985;29;20105;-85
2024/01/04 08:19:15;;;;;;;7.20;1.67;;;3.90;99.90;;;;;;4939169;29;20519;-85
2024/01/04 08:21:41;;;;;;;6.23;1.97;;;4.40;99.90;;;;;;4940058;29;20047;-86
2024/01/04 08:24:06;;;;;;;8.57;1.80;;;5.30;99.90;;;;;;4939519;29;20070;-85
2024/01/04 08:26:32;;;;;;;6.63;1.80;;;4.00;99.90;;;;;;4939428;29;20047;-85
2024/01/04 08:28:58;;;;;;;6.40;1.50;;;4.00;99.90;;;;;;4939910;29;20043;-85
2024/01/04 08:31:23;;;;;;;6.67;1.77;;;4.00;99.90;;;;;;4939619;29;20109;-86
2024/01/04 08:33:49;;;;;;;6.43;1.60;;;3.90;99.90;;;;;;4939515;29;20047;-88
2024/01/04 08:36:15;;;;;;;7.03;1.53;;;3.90;99.90;;;;;;4938871;29;20083;-84
2024/01/04 08:38:40;;;;;;;5.20;1.57;;;3.90;99.90;;;;;;4939344;29;20407;-83
2024/01/04 08:41:06;;;;;;;7.27;1.80;;;3.90;99.90;;;;;;4938932;29;20388;-84
2024/01/04 08:43:31;;;;;;;7.23;1.70;;;3.90;99.90;;;;;;4939653;29;20047;-84
2024/01/04 08:45:57;;;;;;;6.40;1.57;;;4.00;99.90;;;;;;4939293;29;20035;-86
2024/01/04 08:48:23;;;;;;;7.40;2.03;;;4.00;99.90;;;;;;4939162;29;20083;-86
2024/01/04 08:50:48;;;;;;;4.70;1.43;;;4.00;99.90;;;;;;4939405;29;20051;-85
2024/01/04 08:53:20;;;;;;;4.90;1.50;;;4.10;99.90;;;;;;4939099;29;20049;-88
2024/01/04 08:55:46;;;;;;;6.53;1.73;;;4.10;99.90;;;;;;4938911;29;20051;-86
2024/01/04 08:58:11;;;;;;;6.80;1.50;;;4.10;99.90;;;;;;4938775;29;20212;-86
2024/01/04 09:00:37;;;;;;;6.33;2.17;;;4.10;99.90;;;;;;4939388;28;20447;-86
2024/01/04 09:03:03;;;;;;;5.43;1.60;;;4.10;99.90;;;;;;4938363;29;20047;-86
2024/01/04 09:05:30;;;;;;;5.90;1.30;;;4.20;99.90;;;;;;4939195;29;20044;-86
2024/01/04 09:07:55;;;;;;;5.87;1.50;;;4.10;99.90;;;;;;4938617;29;20047;-86
2024/01/04 09:10:21;;;;;;;4.43;1.60;;;4.20;99.90;;;;;;4938990;29;20455;-86
2024/01/04 09:12:51;;;;;;;5.33;2.03;;;4.20;99.90;;;;;;4939103;29;20047;-87
2024/01/04 09:15:17;;;;;;;5.87;1.80;;;4.20;99.90;;;;;;4938060;29;20546;-86
2024/01/04 09:17:43;;;;;;;4.33;1.40;;;4.30;99.90;;;;;;4938837;29;20050;-86
2024/01/04 09:20:09;;;;;;;6.67;2.30;;;4.30;99.90;;;;;;4938373;29;20079;-86
2024/01/04 09:22:35;;;;;;;7.93;1.97;;;4.30;99.90;;;;;;4938283;29;20079;-86
2024/01/04 09:25:03;;;;;;;6.83;2.10;;;4.30;99.90;;;;;;4938527;29;20085;-86
2024/01/04 09:27:28;;;;;;;8.30;1.93;;;4.30;99.90;;;;;;4938454;29;20099;-86
2024/01/04 09:29:55;;;;;;;4.93;1.43;;;4.30;99.90;;;;;;4937404;28;20051;-87
2024/01/04 09:32:20;;;;;;;4.20;1.27;;;4.30;99.90;;;;;;4938168;29;20480;-86
2024/01/04 09:34:46;;;;;;;4.83;1.20;;;5.20;99.90;;;;;;4955647;28;20090;-86
2024/01/04 09:37:12;;;;;;;5.57;1.80;;;4.30;99.90;;;;;;4938008;29;20484;-86
2024/01/04 09:39:39;;;;;;;5.17;1.83;;;4.30;99.90;;;;;;4938541;29;20043;-86
2024/01/04 09:42:06;;;;;;;7.10;1.60;;;4.30;99.90;;;;;;4938261;29;20074;-86
2024/01/04 09:44:33;;;;;;;7.70;1.50;;;5.00;99.90;;;;;;4938029;29;20047;-86
2024/01/04 09:47:09;;;;;;;4.57;1.10;;;4.30;99.90;;;;;;4938252;29;20050;-86
2024/01/04 09:49:37;;;;;;;4.10;1.40;;;4.30;99.90;;;;;;4955549;29;20055;-86
2024/01/04 09:52:03;;;;;;;6.80;1.70;;;4.40;99.90;;;;;;4937544;29;20051;-88
2024/01/04 09:54:30;;;;;;;7.30;1.70;;;4.40;99.90;;;;;;4938214;29;20091;-85
2024/01/04 09:56:56;;;;;;;4.80;1.30;;;4.40;99.90;;;;;;4939751;29;20047;-90
2024/01/04 09:59:21;;;;;;;5.67;1.30;;;4.40;99.90;;;;;;4937583;29;20050;-87
2024/01/04 10:01:47;;;;;;;6.33;1.63;;;4.40;99.90;;;;;;4937418;29;20142;-86
2024/01/04 10:04:16;;;;;;;5.80;1.50;;;4.40;99.90;;;;;;4937288;29;20079;-87
2024/01/04 10:06:46;;;;;;;4.20;1.20;;;4.50;99.90;;;;;;4937948;29;20082;-86
2024/01/04 10:09:15;;;;;;;6.33;1.50;;;4.50;99.90;;;;;;4937757;29;20047;-86
2024/01/04 10:11:58;;;;;;;5.23;1.40;;;4.50;99.90;;;;;;4937357;29;20134;-87
2024/01/04 10:14:25;;;;;;;4.63;1.30;;;4.50;99.90;;;;;;4930694;29;20044;-86
2024/01/04 10:16:51;;;;;;;5.87;1.33;;;4.60;99.90;;;;;;4928239;29;20044;-86
2024/01/04 10:19:17;;;;;;;3.67;1.40;;;4.60;99.90;;;;;;4926255;29;20071;-87
2024/01/04 10:21:43;;;;;;;6.50;1.50;;;4.70;99.90;;;;;;4928487;29;20094;-86
2024/01/04 10:24:13;;;;;;;4.83;1.40;;;4.70;99.90;;;;;;4927721;29;20043;-86
2024/01/04 10:26:40;;;;;;;6.03;1.40;;;4.70;99.90;;;;;;4926288;29;20039;-87
2024/01/04 10:29:06;;;;;;;7.70;1.87;;;4.80;99.90;;;;;;4927247;29;20039;-86
2024/01/04 10:31:32;;;;;;;6.57;1.37;;;4.70;99.90;;;;;;4928414;29;20066;-86
2024/01/04 10:33:59;;;;;;;6.03;1.20;;;4.70;99.90;;;;;;4921252;29;20103;-87
2024/01/04 10:36:28;;;;;;;4.73;1.50;;;4.80;99.90;;;;;;4925759;29;20499;-86
2024/01/04 10:39:06;;;;;;;6.33;1.43;;;4.80;99.90;;;;;;4930001;29;20058;-86
2024/01/04 10:41:33;;;;;;;3.43;1.27;;;4.80;99.90;;;;;;4936403;28;20059;-86
2024/01/04 10:44:06;;;;;;;6.00;1.40;;;4.80;99.90;;;;;;4921496;29;20050;-86
2024/01/04 10:46:34;;;;;;;6.00;1.20;;;4.80;99.90;;;;;;4936991;29;20043;-86
2024/01/04 10:49:02;;;;;;;5.33;1.80;;;4.70;99.90;;;;;;4930358;29;20050;-86
2024/01/04 10:51:31;;;;;;;4.07;1.27;;;4.80;99.90;;;;;;4937122;29;20054;-86
2024/01/04 10:54:01;;;;;;;6.53;1.40;;;4.90;99.90;;;;;;4936791;29;20437;-86
2024/01/04 10:56:29;;;;;;;5.47;1.37;;;4.90;99.90;;;;;;4937270;29;20161;-86
2024/01/04 10:58:56;;;;;;;5.80;1.93;;;4.90;99.90;;;;;;4936737;29;20411;-86
2024/01/04 11:01:22;;;;;;;8.20;1.37;;;4.90;99.90;;;;;;4936610;29;20066;-86
2024/01/04 11:03:49;;;;;;;4.00;1.20;;;4.90;99.90;;;;;;4937255;29;20057;-86
2024/01/04 11:06:15;;;;;;;5.73;1.50;;;4.90;99.90;;;;;;4937030;29;20186;-86
2024/01/04 11:08:41;;;;;;;5.63;1.17;;;4.90;99.90;;;;;;4937141;29;20035;-86
2024/01/04 11:11:09;;;;;;;3.13;1.20;;;4.90;99.90;;;;;;4936951;29;20462;-86
2024/01/04 11:13:35;;;;;;;5.00;1.20;;;4.90;99.90;;;;;;4939377;29;20043;-86
2024/01/04 11:16:14;;;;;;;4.57;1.20;;;5.00;99.90;;;;;;4938927;29;20086;-86
2024/01/04 11:19:11;;;;;;;5.20;1.30;;;5.00;99.90;;;;;;4931010;29;20056;-86
2024/01/04 11:21:43;;;;;;;5.73;1.30;;;5.10;99.90;;;;;;4899985;29;20408;-88
2024/01/04 11:24:22;;;;;;;4.67;1.23;;;5.20;99.90;;;;;;4918166;29;20056;-87
2024/01/04 11:26:58;;;;;;;4.87;1.33;;;5.20;99.90;;;;;;4902431;29;20103;-88
2024/01/04 11:29:25;;;;;;;4.77;1.43;;;5.20;99.90;;;;;;4917376;29;20059;-88
2024/01/04 11:31:51;;;;;;;6.23;1.40;;;5.20;99.90;;;;;;4918285;29;20135;-88
2024/01/04 11:34:18;;;;;;;4.20;1.07;;;5.20;99.90;;;;;;4917778;29;20127;-88
2024/01/04 11:36:44;;;;;;;6.30;1.30;;;5.20;99.90;;;;;;4917539;29;20050;-85
2024/01/04 11:39:10;;;;;;;5.57;1.20;;;5.20;99.90;;;;;;4924404;29;20126;-85
2024/01/04 11:41:37;;;;;;;4.27;1.20;;;5.20;99.90;;;;;;4936926;29;20039;-85
2024/01/04 11:44:14;;;;;;;6.73;1.30;;;5.20;99.90;;;;;;4936148;29;20074;-86
2024/01/04 11:46:41;;;;;;;5.83;1.30;;;6.40;99.90;;;;;;4936779;29;20610;-86
2024/01/04 11:49:06;;;;;;;2.07;1.07;;;5.30;99.90;;;;;;4937075;29;20055;-85
2024/01/04 11:51:38;;;;;;;3.53;1.10;;;5.30;99.90;;;;;;4953761;29;20414;-85
2024/01/04 11:54:05;;;;;;;2.37;1.10;;;5.30;99.90;;;;;;4938060;29;20070;-86
2024/01/04 11:56:31;;;;;;;3.73;1.20;;;5.30;99.90;;;;;;4930227;29;20451;-85
2024/01/04 11:59:10;;;;;;;3.17;1.10;;;5.40;99.90;;;;;;4937955;29;20043;-86
2024/01/04 12:01:41;;;;;;;4.17;1.20;;;5.40;99.90;;;;;;4928909;29;20392;-86
2024/01/04 12:04:15;;;;;;;5.37;1.40;;;5.40;99.90;;;;;;4933128;29;20131;-85
2024/01/04 12:06:42;;;;;;;3.90;1.30;;;5.40;99.90;;;;;;4935671;29;20042;-85
2024/01/04 12:09:09;;;;;;;4.43;1.20;;;5.30;99.90;;;;;;4936276;29;20044;-84
2024/01/04 12:11:36;;;;;;;5.43;1.50;;;5.40;99.90;;;;;;4936681;29;20504;-85
2024/01/04 12:14:03;;;;;;;3.83;1.27;;;5.40;99.90;;;;;;4936742;29;20044;-86
2024/01/04 12:16:30;;;;;;;4.33;1.20;;;6.70;99.90;;;;;;4936671;29;20078;-85
2024/01/04 12:18:56;;;;;;;3.23;1.20;;;5.30;99.90;;;;;;4966114;23;20047;-86
2024/01/04 12:21:23;;;;;;;4.17;1.33;;;5.30;99.90;;;;;;4939332;29;20043;-85
2024/01/04 12:23:49;;;;;;;5.13;1.40;;;5.30;99.90;;;;;;4939717;29;20090;-86
2024/01/04 12:26:15;;;;;;;5.30;1.60;;;5.30;99.90;;;;;;4938750;29;20043;-86
2024/01/04 12:28:41;;;;;;;4.73;1.40;;;5.30;99.90;;;;;;4939352;29;20051;-86
2024/01/04 12:31:11;;;;;;;5.67;1.70;;;5.30;99.90;;;;;;4939244;29;20061;-86
2024/01/04 12:33:42;;;;;;;5.33;1.50;;;5.30;99.90;;;;;;4939500;29;20114;-85
2024/01/04 12:36:08;;;;;;;5.93;1.50;;;5.30;99.90;;;;;;4937845;29;20043;-85
2024/01/04 12:38:33;;;;;;;4.00;1.30;;;5.30;99.90;;;;;;4938970;29;20522;-85
2024/01/04 12:40:59;;;;;;;5.17;1.47;;;5.30;99.90;;;;;;4937508;29;20043;-85
2024/01/04 12:43:25;;;;;;;5.70;1.40;;;5.30;99.90;;;;;;4939609;29;20519;-85
2024/01/04 12:46:04;;;;;;;3.90;1.37;;;5.30;99.90;;;;;;4939341;29;20487;-85
2024/01/04 12:48:30;;;;;;;4.80;1.50;;;5.40;99.90;;;;;;4939511;29;20502;-85
2024/01/04 12:51:08;;;;;;;4.37;1.37;;;5.30;99.90;;;;;;4938930;29;20043;-86
2024/01/04 12:53:33;;;;;;;5.77;1.53;;;5.30;99.90;;;;;;4938966;29;20086;-85
2024/01/04 12:55:59;;;;;;;4.70;1.20;;;5.30;99.90;;;;;;4939151;29;20100;-85
2024/01/04 12:58:25;;;;;;;5.57;1.40;;;5.30;99.90;;;;;;4938994;29;20112;-85